Time;durP1;ratioP1;P1;durP2;ratioP2;P2;SDS_P1;SDS_P2;PMS_P1;PMS_P2;Temp;Humidity;BMP_temperature;BMP_pressure;BME280_temperature;BME280_humidity;BME280_pressure;Samples;Min_cycle;Max_cycle;Signal;HPM_P1;HPM_P2
2022/08/19 00:00:34;;;;;;;9.32;6.38;;;18.50;99.90;;;;;;5030891;28;20072;-74
2022/08/19 00:03:00;;;;;;;7.20;5.47;;;16.90;99.90;;;;;;5031948;28;20498;-72
2022/08/19 00:05:25;;;;;;;6.63;6.03;;;17.10;99.90;;;;;;5013477;28;20040;-72
2022/08/19 00:07:51;;;;;;;6.75;5.90;;;18.30;99.90;;;;;;5030663;28;20045;-72
2022/08/19 00:10:18;;;;;;;6.72;6.03;;;16.80;99.90;;;;;;5031645;28;20113;-72
2022/08/19 00:12:44;;;;;;;10.55;6.90;;;17.60;99.90;;;;;;5031977;28;20049;-72
2022/08/19 00:15:13;;;;;;;9.10;5.45;;;18.30;99.90;;;;;;5030006;28;20049;-72
2022/08/19 00:17:41;;;;;;;6.68;5.97;;;17.00;99.90;;;;;;5031970;28;20037;-72
2022/08/19 00:20:07;;;;;;;7.38;5.60;;;17.20;99.90;;;;;;5030331;28;20045;-71
2022/08/19 00:22:33;;;;;;;9.25;6.75;;;16.80;99.90;;;;;;5031579;28;20041;-72
2022/08/19 00:24:59;;;;;;;8.70;6.35;;;16.50;99.90;;;;;;5030547;28;20095;-73
2022/08/19 00:27:24;;;;;;;8.73;6.25;;;16.90;99.90;;;;;;5031733;28;20077;-72
2022/08/19 00:29:50;;;;;;;7.30;6.47;;;16.70;99.90;;;;;;5014040;28;20441;-72
2022/08/19 00:32:17;;;;;;;8.27;6.30;;;18.50;99.90;;;;;;5031478;28;20121;-72
2022/08/19 00:34:43;;;;;;;11.35;6.85;;;18.30;99.90;;;;;;5029946;28;20376;-72
2022/08/19 00:37:09;;;;;;;10.15;6.75;;;16.60;99.90;;;;;;5030134;28;20499;-72
2022/08/19 00:39:34;;;;;;;12.00;6.90;;;18.30;99.90;;;;;;5031262;28;20043;-72
2022/08/19 00:42:00;;;;;;;10.93;7.07;;;18.10;99.90;;;;;;5031585;28;20125;-72
2022/08/19 00:44:28;;;;;;;8.52;6.05;;;16.80;99.90;;;;;;5030112;28;20047;-72
2022/08/19 00:46:57;;;;;;;9.90;6.50;;;16.60;99.90;;;;;;5030158;28;20398;-73
2022/08/19 00:49:34;;;;;;;9.20;6.22;;;16.60;99.90;;;;;;5030182;28;20047;-72
2022/08/19 00:52:13;;;;;;;8.95;5.97;;;16.50;99.90;;;;;;5013545;28;20045;-72
2022/08/19 00:54:40;;;;;;;8.30;7.03;;;17.30;99.90;;;;;;5029682;28;20041;-72
2022/08/19 00:57:10;;;;;;;7.40;5.93;;;16.50;99.90;;;;;;5031437;28;20095;-71
2022/08/19 00:59:38;;;;;;;8.07;5.80;;;15.70;99.90;;;;;;5031450;28;20041;-72
2022/08/19 01:02:04;;;;;;;11.32;6.47;;;16.50;99.90;;;;;;5031277;28;20034;-72
2022/08/19 01:04:29;;;;;;;9.30;6.78;;;16.50;99.90;;;;;;5030751;28;20120;-71
2022/08/19 01:06:57;;;;;;;11.00;6.65;;;16.50;99.90;;;;;;5029878;28;20041;-73
2022/08/19 01:09:22;;;;;;;8.75;6.18;;;17.10;99.90;;;;;;5029879;28;20077;-72
2022/08/19 01:11:49;;;;;;;9.45;6.63;;;16.50;99.90;;;;;;5029960;28;20529;-71
2022/08/19 01:14:16;;;;;;;7.45;5.75;;;16.60;99.90;;;;;;5013460;28;20056;-72
2022/08/19 01:16:42;;;;;;;8.88;6.40;;;16.70;99.90;;;;;;5031358;28;20096;-72
2022/08/19 01:19:20;;;;;;;10.32;7.25;;;16.50;99.90;;;;;;5029829;28;20038;-72
2022/08/19 01:22:01;;;;;;;10.10;6.75;;;16.40;99.90;;;;;;5029734;28;20064;-72
2022/08/19 01:24:27;;;;;;;8.57;6.35;;;16.20;99.90;;;;;;5029712;28;20090;-72
2022/08/19 01:26:53;;;;;;;9.40;6.63;;;17.20;99.90;;;;;;5031127;28;20033;-72
2022/08/19 01:29:18;;;;;;;11.45;7.05;;;16.50;99.90;;;;;;5029991;28;20099;-72
2022/08/19 01:31:44;;;;;;;7.95;6.93;;;16.40;99.90;;;;;;5031338;28;20550;-73
2022/08/19 01:34:10;;;;;;;8.60;6.88;;;16.60;99.90;;;;;;5029432;28;20561;-71
2022/08/19 01:36:41;;;;;;;9.15;6.25;;;16.90;99.90;;;;;;5033918;28;20045;-72
2022/08/19 01:39:10;;;;;;;9.27;6.78;;;16.30;99.90;;;;;;5034657;28;20040;-72
2022/08/19 01:41:36;;;;;;;10.52;7.05;;;16.40;99.90;;;;;;5034579;28;20409;-72
2022/08/19 01:44:04;;;;;;;9.63;6.88;;;16.30;99.90;;;;;;5034079;28;20037;-72
2022/08/19 01:46:31;;;;;;;12.30;8.50;;;16.40;99.90;;;;;;5034470;28;20196;-72
2022/08/19 01:48:56;;;;;;;9.43;7.97;;;16.10;99.90;;;;;;5033779;28;20056;-72
2022/08/19 01:51:22;;;;;;;10.38;7.60;;;16.30;99.90;;;;;;5032961;28;20041;-71
2022/08/19 01:53:50;;;;;;;9.50;7.28;;;16.10;99.90;;;;;;5032788;28;20044;-72
2022/08/19 01:56:16;;;;;;;9.18;7.15;;;16.20;99.90;;;;;;5032654;28;20077;-72
2022/08/19 01:58:48;;;;;;;10.77;8.02;;;16.20;99.90;;;;;;5034033;28;20076;-72
2022/08/19 02:01:13;;;;;;;14.75;8.55;;;16.20;99.90;;;;;;5034391;28;20052;-72
2022/08/19 02:03:39;;;;;;;16.33;8.52;;;16.70;99.90;;;;;;5034097;28;20121;-72
2022/08/19 02:06:05;;;;;;;11.30;7.55;;;16.20;99.90;;;;;;5056452;22;20048;-69
2022/08/19 02:08:34;;;;;;;10.70;8.57;;;16.20;99.90;;;;;;5032877;28;20044;-69
2022/08/19 02:10:59;;;;;;;16.10;9.57;;;16.00;99.90;;;;;;5033075;28;20566;-69
2022/08/19 02:13:27;;;;;;;12.02;8.68;;;16.00;99.90;;;;;;5032813;28;20124;-70
2022/08/19 02:15:52;;;;;;;11.45;8.77;;;16.10;99.90;;;;;;5033588;28;20037;-70
2022/08/19 02:18:18;;;;;;;13.88;9.27;;;17.00;99.90;;;;;;5032661;28;20087;-69
2022/08/19 02:20:44;;;;;;;13.77;9.20;;;16.50;99.90;;;;;;5034132;28;20395;-69
2022/08/19 02:23:12;;;;;;;12.65;8.60;;;16.00;99.90;;;;;;5032758;28;20042;-70
2022/08/19 02:25:38;;;;;;;13.57;8.93;;;16.00;99.90;;;;;;5032253;28;20392;-69
2022/08/19 02:28:04;;;;;;;15.35;9.43;;;16.00;99.90;;;;;;5032845;28;20048;-69
2022/08/19 02:30:30;;;;;;;11.98;8.52;;;15.80;99.90;;;;;;5033797;28;20045;-69
2022/08/19 02:32:56;;;;;;;12.07;8.88;;;15.90;99.90;;;;;;5034056;28;20557;-69
2022/08/19 02:35:22;;;;;;;11.07;8.88;;;16.00;99.90;;;;;;5033461;28;20073;-69
2022/08/19 02:40:34;;;;;;;12.13;8.38;;;16.10;99.90;;;;;;5033775;28;20041;-70
2022/08/19 02:43:05;;;;;;;13.80;8.57;;;16.20;99.90;;;;;;5032419;28;20120;-70
2022/08/19 02:45:36;;;;;;;11.10;8.40;;;16.10;99.90;;;;;;5032274;28;20052;-69
2022/08/19 02:48:02;;;;;;;10.00;8.32;;;16.10;99.90;;;;;;5015106;28;20045;-69
2022/08/19 02:50:28;;;;;;;10.18;7.72;;;16.00;99.90;;;;;;5032653;28;20450;-69
2022/08/19 02:52:54;;;;;;;10.65;8.23;;;15.90;99.90;;;;;;5032040;28;20041;-70
2022/08/19 02:55:20;;;;;;;8.95;6.50;;;16.30;99.90;;;;;;5031578;28;20037;-69
2022/08/19 02:57:46;;;;;;;11.52;8.57;;;15.90;99.90;;;;;;5032329;28;20048;-70
2022/08/19 03:00:13;;;;;;;10.45;7.70;;;15.90;99.90;;;;;;5015841;28;20400;-69
2022/08/19 03:02:39;;;;;;;9.35;7.85;;;15.80;99.90;;;;;;5031940;28;20120;-70
2022/08/19 03:05:07;;;;;;;9.90;7.82;;;15.90;99.90;;;;;;5032858;28;20044;-69
2022/08/19 03:07:33;;;;;;;9.52;7.57;;;15.70;99.90;;;;;;5032978;28;20064;-69
2022/08/19 03:09:59;;;;;;;10.25;8.23;;;15.80;99.90;;;;;;5031753;28;20084;-69
2022/08/19 03:12:24;;;;;;;9.35;7.55;;;15.90;99.90;;;;;;5015627;28;20120;-70
2022/08/19 03:14:51;;;;;;;8.40;7.50;;;15.80;99.90;;;;;;5031765;28;20037;-70
2022/08/19 03:17:17;;;;;;;9.93;7.22;;;16.00;99.90;;;;;;5032900;28;20614;-69
2022/08/19 03:19:43;;;;;;;10.30;7.82;;;15.60;99.90;;;;;;5032115;28;20136;-69
2022/08/19 03:22:09;;;;;;;9.27;7.68;;;15.70;99.90;;;;;;5032837;28;20029;-70
2022/08/19 03:24:34;;;;;;;10.77;6.95;;;15.60;99.90;;;;;;5032325;28;20059;-69
2022/08/19 03:27:00;;;;;;;9.00;7.10;;;15.70;99.90;;;;;;5031902;28;20041;-69
2022/08/19 03:29:27;;;;;;;8.43;6.95;;;16.50;99.90;;;;;;5032845;28;20041;-70
2022/08/19 03:31:54;;;;;;;12.68;9.15;;;15.70;99.90;;;;;;5031317;28;20045;-69
2022/08/19 03:34:26;;;;;;;11.88;8.80;;;15.70;99.90;;;;;;5031134;28;20053;-69
2022/08/19 03:36:54;;;;;;;14.38;8.75;;;15.80;99.90;;;;;;5031227;28;20045;-70
2022/08/19 03:39:19;;;;;;;12.43;7.97;;;15.70;99.90;;;;;;5030552;28;20049;-69
2022/08/19 03:41:46;;;;;;;12.48;8.60;;;16.30;99.90;;;;;;5031285;28;20514;-69
2022/08/19 03:44:14;;;;;;;14.38;8.23;;;15.70;99.90;;;;;;5030640;28;20041;-69
2022/08/19 03:46:39;;;;;;;14.05;9.55;;;15.70;99.90;;;;;;5032509;28;20037;-70
2022/08/19 03:49:08;;;;;;;12.77;8.73;;;15.40;99.90;;;;;;5031585;28;20110;-69
2022/08/19 03:51:36;;;;;;;13.07;8.30;;;15.70;99.90;;;;;;5031199;28;20048;-69
2022/08/19 03:54:05;;;;;;;11.38;9.52;;;15.90;99.90;;;;;;5030610;28;20531;-69
2022/08/19 03:56:32;;;;;;;10.32;8.38;;;15.70;99.90;;;;;;5032247;28;20069;-70
2022/08/19 03:58:59;;;;;;;12.93;9.05;;;15.50;99.90;;;;;;5031346;28;20084;-69
2022/08/19 04:01:28;;;;;;;14.25;9.48;;;15.60;99.90;;;;;;5031006;28;20038;-70
2022/08/19 04:03:56;;;;;;;11.95;8.23;;;15.60;99.90;;;;;;5030860;28;20048;-69
2022/08/19 04:06:34;;;;;;;12.55;8.93;;;15.50;99.90;;;;;;5031885;28;20407;-69
2022/08/19 04:09:02;;;;;;;12.95;8.75;;;16.80;99.90;;;;;;5031142;28;20407;-70
2022/08/19 04:11:31;;;;;;;12.15;7.88;;;15.80;99.90;;;;;;5031925;28;20042;-69
2022/08/19 04:13:57;;;;;;;12.77;9.45;;;15.60;99.90;;;;;;5030582;28;20072;-69
2022/08/19 04:16:28;;;;;;;12.98;8.98;;;15.80;99.90;;;;;;5030759;28;20076;-69
2022/08/19 04:18:54;;;;;;;11.93;8.73;;;15.50;99.90;;;;;;5030796;28;20091;-69
2022/08/19 04:21:23;;;;;;;12.48;8.88;;;15.60;99.90;;;;;;5032045;28;20200;-69
2022/08/19 04:23:49;;;;;;;11.60;8.85;;;15.60;99.90;;;;;;5030448;28;20037;-70
2022/08/19 04:26:19;;;;;;;13.23;8.77;;;15.50;99.90;;;;;;5030346;28;20091;-69
2022/08/19 04:28:46;;;;;;;13.80;9.15;;;15.50;99.90;;;;;;5031042;28;20228;-69
2022/08/19 04:31:25;;;;;;;11.75;9.43;;;15.80;99.90;;;;;;5030633;28;20052;-69
2022/08/19 04:33:53;;;;;;;15.30;9.18;;;15.70;99.90;;;;;;5031699;28;20068;-69
2022/08/19 04:36:29;;;;;;;13.15;9.27;;;15.50;99.90;;;;;;5030241;28;20499;-69
2022/08/19 04:39:02;;;;;;;13.25;9.27;;;14.70;99.90;;;;;;5030795;28;20044;-69
2022/08/19 04:44:13;;;;;;;11.05;9.13;;;15.40;99.90;;;;;;5030073;28;20041;-70
2022/08/19 04:46:39;;;;;;;12.45;9.30;;;15.60;99.90;;;;;;5013773;28;20124;-69
2022/08/19 04:49:06;;;;;;;11.00;8.85;;;15.60;99.90;;;;;;5030530;28;20172;-69
2022/08/19 04:51:35;;;;;;;12.40;9.23;;;15.80;99.90;;;;;;5030206;28;20135;-69
2022/08/19 04:54:03;;;;;;;11.85;9.07;;;15.60;99.90;;;;;;5013803;28;20033;-69
2022/08/19 04:56:29;;;;;;;13.77;9.88;;;15.60;99.90;;;;;;5030171;28;20505;-69
2022/08/19 04:58:56;;;;;;;15.07;10.52;;;15.50;99.90;;;;;;5031458;28;20072;-70
2022/08/19 05:01:24;;;;;;;15.48;9.48;;;15.60;99.90;;;;;;5030601;28;20385;-69
2022/08/19 05:03:50;;;;;;;13.60;10.18;;;16.60;99.90;;;;;;5013758;28;20484;-69
2022/08/19 05:06:18;;;;;;;13.07;10.23;;;15.60;99.90;;;;;;5013537;28;20045;-69
2022/08/19 05:08:44;;;;;;;15.68;9.35;;;15.80;99.90;;;;;;5030371;28;20132;-69
2022/08/19 05:11:16;;;;;;;17.73;11.10;;;15.90;99.90;;;;;;5033845;28;20045;-69
2022/08/19 05:13:44;;;;;;;15.65;10.27;;;15.90;99.90;;;;;;5017787;28;20100;-69
2022/08/19 05:16:12;;;;;;;14.48;9.90;;;16.20;99.90;;;;;;5034833;28;20454;-69
2022/08/19 05:24:11;;;;;;;16.92;10.30;;;17.60;99.90;;;;;;5035103;28;20131;-69
2022/08/19 05:26:38;;;;;;;16.98;10.68;;;16.00;99.90;;;;;;5035121;28;20052;-69
2022/08/19 05:29:04;;;;;;;14.15;9.25;;;16.20;99.90;;;;;;5035197;28;20415;-69
2022/08/19 05:31:31;;;;;;;15.38;10.98;;;16.10;99.90;;;;;;5034063;28;20077;-69
2022/08/19 05:33:58;;;;;;;14.27;9.90;;;16.70;99.90;;;;;;5033587;28;20080;-69
2022/08/19 05:36:27;;;;;;;14.68;11.07;;;16.10;99.90;;;;;;5033859;28;20041;-70
2022/08/19 05:38:53;;;;;;;14.82;10.57;;;17.70;99.90;;;;;;5033761;28;20376;-69
2022/08/19 05:41:19;;;;;;;15.75;10.50;;;16.10;99.90;;;;;;5033511;28;20124;-69
2022/08/19 05:43:45;;;;;;;15.02;11.20;;;16.20;99.90;;;;;;5016743;28;20044;-69
2022/08/19 05:46:18;;;;;;;19.45;11.25;;;16.90;99.90;;;;;;5033202;28;20128;-69
2022/08/19 05:48:44;;;;;;;15.75;10.82;;;16.60;99.90;;;;;;5034636;28;20041;-69
2022/08/19 05:51:10;;;;;;;16.30;10.32;;;17.70;99.90;;;;;;5033878;28;20492;-69
2022/08/19 05:53:36;;;;;;;16.05;11.00;;;16.60;99.90;;;;;;5034395;28;20049;-69
2022/08/19 05:56:10;;;;;;;19.35;12.52;;;16.60;99.90;;;;;;5033400;28;20045;-69
2022/08/19 05:58:37;;;;;;;12.60;9.55;;;16.80;99.90;;;;;;5034458;28;20095;-69
2022/08/19 06:01:05;;;;;;;14.75;9.48;;;16.80;99.90;;;;;;5016890;28;20067;-69
2022/08/19 06:03:33;;;;;;;12.35;10.10;;;16.70;99.90;;;;;;5032927;28;20037;-70
2022/08/19 06:05:59;;;;;;;11.98;9.18;;;16.80;99.90;;;;;;5033773;28;20053;-69
2022/08/19 06:08:26;;;;;;;15.65;10.65;;;17.40;99.90;;;;;;5034352;28;20065;-69
2022/08/19 06:10:52;;;;;;;14.75;10.13;;;17.10;99.90;;;;;;5032880;28;20491;-70
2022/08/19 06:13:19;;;;;;;14.38;10.68;;;17.20;99.90;;;;;;5032774;28;20052;-69
2022/08/19 06:15:46;;;;;;;16.90;11.50;;;18.60;99.90;;;;;;5034012;28;20049;-70
2022/08/19 06:18:12;;;;;;;13.38;10.85;;;17.40;99.90;;;;;;5032922;28;20042;-70
2022/08/19 06:20:38;;;;;;;15.57;10.85;;;18.30;99.90;;;;;;5032969;28;20442;-70
2022/08/19 06:23:04;;;;;;;17.35;12.23;;;18.70;99.90;;;;;;5032157;28;20041;-70
2022/08/19 06:25:30;;;;;;;19.27;13.07;;;17.60;99.90;;;;;;5032300;28;20073;-69
2022/08/19 06:27:55;;;;;;;18.30;12.30;;;17.70;99.90;;;;;;5033955;28;20034;-69
2022/08/19 06:30:21;;;;;;;15.95;11.57;;;19.10;99.90;;;;;;5032172;28;20045;-69
2022/08/19 06:32:47;;;;;;;18.40;12.55;;;18.00;99.90;;;;;;4994907;28;20038;-69
2022/08/19 06:35:14;;;;;;;18.73;11.27;;;17.90;99.90;;;;;;5033964;28;20037;-70
2022/08/19 06:37:40;;;;;;;15.98;11.93;;;18.80;99.90;;;;;;5050860;28;20041;-70
2022/08/19 06:40:08;;;;;;;14.70;10.82;;;18.00;99.90;;;;;;5039306;28;20064;-70
2022/08/19 06:42:34;;;;;;;18.05;12.63;;;18.30;99.90;;;;;;5040104;28;20041;-70
2022/08/19 06:45:02;;;;;;;17.45;11.48;;;19.40;99.90;;;;;;5025354;28;20057;-70
2022/08/19 06:47:28;;;;;;;16.05;12.90;;;18.50;99.90;;;;;;5025816;28;20474;-71
2022/08/19 06:50:02;;;;;;;16.42;13.18;;;19.90;99.90;;;;;;5037885;28;20072;-70
2022/08/19 06:52:33;;;;;;;15.70;12.02;;;18.50;99.90;;;;;;5039625;28;20041;-70
2022/08/19 06:55:00;;;;;;;18.15;13.63;;;18.70;99.90;;;;;;5031258;28;20105;-71
2022/08/19 06:57:26;;;;;;;22.00;14.00;;;18.80;99.90;;;;;;5044405;28;20049;-70
2022/08/19 06:59:52;;;;;;;15.70;12.70;;;18.80;99.90;;;;;;5050139;28;20044;-71
2022/08/19 07:02:19;;;;;;;16.02;12.18;;;19.00;99.90;;;;;;5052602;28;20112;-71
2022/08/19 07:04:44;;;;;;;21.20;14.18;;;21.00;99.90;;;;;;5051473;28;20037;-71
2022/08/19 07:07:13;;;;;;;21.25;13.60;;;20.40;99.90;;;;;;5034913;28;20118;-70
2022/08/19 07:09:41;;;;;;;18.75;13.60;;;19.10;99.90;;;;;;5052917;28;20475;-70
2022/08/19 07:12:10;;;;;;;16.73;12.88;;;19.30;99.90;;;;;;5025410;28;20042;-70
2022/08/19 07:14:37;;;;;;;16.25;13.43;;;19.50;99.90;;;;;;5031482;28;20075;-70
2022/08/19 07:17:06;;;;;;;14.55;11.32;;;19.40;99.90;;;;;;5031907;28;20488;-70
2022/08/19 07:19:33;;;;;;;14.25;11.75;;;19.50;99.90;;;;;;5031444;28;20080;-70
2022/08/19 07:22:01;;;;;;;18.05;11.68;;;19.60;99.90;;;;;;5031940;28;20129;-70
2022/08/19 07:24:27;;;;;;;14.48;11.82;;;20.70;99.90;;;;;;5020994;28;20042;-70
2022/08/19 07:27:00;;;;;;;16.98;12.57;;;20.10;99.90;;;;;;5012768;28;20041;-70
2022/08/19 07:29:26;;;;;;;19.30;13.25;;;20.10;99.90;;;;;;5022124;28;20045;-70
2022/08/19 07:31:56;;;;;;;17.17;12.95;;;20.00;99.90;;;;;;5030250;28;20045;-69
2022/08/19 07:34:23;;;;;;;15.75;11.60;;;20.00;99.90;;;;;;5004165;28;20091;-70
2022/08/19 07:36:49;;;;;;;17.35;12.90;;;20.60;99.90;;;;;;5024118;28;20048;-70
2022/08/19 07:39:19;;;;;;;16.42;12.35;;;20.50;99.90;;;;;;5030390;28;20045;-69
2022/08/19 07:41:46;;;;;;;13.93;11.57;;;21.00;99.90;;;;;;5030636;28;20033;-70
2022/08/19 07:44:13;;;;;;;19.13;12.90;;;20.50;99.90;;;;;;5032378;28;20112;-70
2022/08/19 07:46:45;;;;;;;16.63;13.48;;;20.40;99.90;;;;;;5015578;28;20042;-69
2022/08/19 07:49:17;;;;;;;16.57;13.60;;;21.10;99.90;;;;;;5029980;28;20045;-70
2022/08/19 07:51:44;;;;;;;19.83;12.68;;;20.30;99.90;;;;;;5030680;28;20647;-70
2022/08/19 07:54:11;;;;;;;16.27;11.38;;;20.80;99.90;;;;;;5012944;28;20047;-70
2022/08/19 07:56:37;;;;;;;19.08;14.15;;;21.00;99.90;;;;;;5031570;28;20179;-70
2022/08/19 07:59:03;;;;;;;18.70;14.27;;;20.90;99.90;;;;;;5030130;28;20029;-70
2022/08/19 08:01:29;;;;;;;19.25;13.98;;;21.90;99.90;;;;;;5029688;28;20491;-70
2022/08/19 08:09:46;;;;;;;19.13;15.13;;;21.30;99.90;;;;;;4978560;28;20042;-72
2022/08/19 08:12:18;;;;;;;21.15;14.98;;;22.00;99.90;;;;;;5010616;28;20037;-72
2022/08/19 08:14:46;;;;;;;22.48;15.13;;;22.60;99.90;;;;;;5022102;28;20053;-72
2022/08/19 08:17:12;;;;;;;21.40;14.55;;;22.90;99.90;;;;;;5029658;28;20046;-72
2022/08/19 08:19:40;;;;;;;22.38;17.00;;;21.80;99.90;;;;;;5029311;28;20394;-72
2022/08/19 08:23:21;;;;;;;21.05;15.98;;;22.90;99.90;;;;;;5030088;28;20099;-72
2022/08/19 08:24:54;;;;;;;20.13;15.15;;;21.70;99.90;;;;;;5029419;28;20477;-72
2022/08/19 08:27:20;;;;;;;18.92;15.88;;;22.50;99.90;;;;;;5029758;28;20110;-70
2022/08/19 08:29:45;;;;;;;20.23;16.23;;;22.20;99.90;;;;;;5031548;28;20514;-70
2022/08/19 08:32:11;;;;;;;21.00;16.45;;;22.80;99.90;;;;;;5026916;28;20069;-69
2022/08/19 08:34:36;;;;;;;22.55;17.90;;;22.00;99.90;;;;;;5015628;28;20041;-69
2022/08/19 08:37:03;;;;;;;22.15;16.33;;;21.90;99.90;;;;;;5022939;28;20049;-70
2022/08/19 08:39:28;;;;;;;20.70;16.73;;;22.00;99.90;;;;;;5024490;28;20037;-70
2022/08/19 08:42:09;;;;;;;21.73;16.23;;;22.10;99.90;;;;;;5023674;28;20510;-70
2022/08/19 08:44:45;;;;;;;21.67;17.30;;;22.00;99.90;;;;;;5004003;28;20042;-70
2022/08/19 08:47:16;;;;;;;20.95;16.05;;;22.00;99.90;;;;;;5020969;28;20048;-69
2022/08/19 08:49:48;;;;;;;18.85;16.02;;;22.40;99.90;;;;;;5022742;28;20046;-70
2022/08/19 08:52:17;;;;;;;22.73;17.38;;;22.30;99.90;;;;;;5023470;28;20430;-69
2022/08/19 08:54:47;;;;;;;21.38;17.55;;;23.60;99.90;;;;;;5013431;28;20069;-70
2022/08/19 08:57:19;;;;;;;20.92;17.95;;;22.60;99.90;;;;;;5023044;28;20092;-70
2022/08/19 08:59:51;;;;;;;22.07;17.87;;;22.80;99.90;;;;;;5002016;28;20038;-70
2022/08/19 09:02:17;;;;;;;20.30;17.10;;;22.50;99.90;;;;;;5026312;28;20087;-70
2022/08/19 09:04:43;;;;;;;22.90;19.02;;;22.80;99.90;;;;;;5015232;28;20038;-70
2022/08/19 09:07:39;;;;;;;22.02;17.02;;;22.90;99.90;;;;;;5013735;28;20048;-70
2022/08/19 09:10:10;;;;;;;25.65;19.23;;;23.10;99.90;;;;;;5027255;28;20042;-70
2022/08/19 09:12:52;;;;;;;26.10;20.02;;;23.00;99.90;;;;;;5025810;28;20426;-71
2022/08/19 09:15:23;;;;;;;24.70;20.05;;;23.40;99.90;;;;;;5025754;28;20037;-71
2022/08/19 09:17:48;;;;;;;29.95;19.52;;;23.40;99.90;;;;;;5034342;28;20143;-71
2022/08/19 09:20:23;;;;;;;21.65;17.92;;;23.40;99.90;;;;;;5033006;28;20407;-70
2022/08/19 09:22:49;;;;;;;23.20;19.50;;;23.70;99.90;;;;;;5033495;28;20052;-71
2022/08/19 09:25:23;;;;;;;24.13;19.15;;;24.20;99.90;;;;;;5032173;28;20037;-71
2022/08/19 09:27:51;;;;;;;25.20;18.80;;;23.40;99.90;;;;;;5023122;28;20041;-71
2022/08/19 09:30:21;;;;;;;23.88;18.20;;;23.20;99.90;;;;;;5034189;28;20087;-71
2022/08/19 09:32:47;;;;;;;25.52;21.13;;;23.10;99.90;;;;;;5032467;28;20522;-71
2022/08/19 09:35:13;;;;;;;26.67;19.52;;;23.40;99.90;;;;;;5031444;28;20029;-71
2022/08/19 09:37:39;;;;;;;24.20;19.15;;;23.30;99.90;;;;;;5032446;28;20037;-69
2022/08/19 09:40:06;;;;;;;31.20;20.02;;;23.60;99.90;;;;;;5024431;28;20113;-70
2022/08/19 09:42:33;;;;;;;24.55;19.85;;;23.60;99.90;;;;;;4999876;28;20037;-71
2022/08/19 09:44:59;;;;;;;21.63;18.90;;;23.80;99.90;;;;;;5017932;28;20056;-71
2022/08/19 09:47:25;;;;;;;28.25;17.60;;;24.10;99.90;;;;;;5030242;28;22170;-70
2022/08/19 09:49:50;;;;;;;22.83;17.83;;;24.90;99.90;;;;;;5031068;28;20045;-70
2022/08/19 09:52:16;;;;;;;21.45;17.67;;;23.80;99.90;;;;;;5013315;28;20042;-70
2022/08/19 09:54:42;;;;;;;23.17;18.30;;;23.90;99.90;;;;;;5014169;28;20454;-70
2022/08/19 09:57:07;;;;;;;20.90;17.55;;;24.10;99.90;;;;;;5024974;28;20495;-70
2022/08/19 09:59:33;;;;;;;20.13;16.67;;;23.90;99.90;;;;;;5032374;28;20645;-70
2022/08/19 10:01:59;;;;;;;27.20;19.25;;;24.00;99.90;;;;;;5032137;28;20033;-70
2022/08/19 10:05:47;;;;;;;17.92;12.50;;;23.90;99.90;;;;;;5031807;28;20029;-70
2022/08/19 10:07:11;;;;;;;15.65;12.43;;;24.80;99.90;;;;;;5032981;28;20055;-70
2022/08/19 10:09:36;;;;;;;15.35;12.80;;;24.80;99.90;;;;;;5021473;28;20033;-70
2022/08/19 10:12:04;;;;;;;19.15;12.05;;;24.10;99.90;;;;;;5033002;28;20402;-70
2022/08/19 10:14:30;;;;;;;17.00;10.40;;;24.60;99.90;;;;;;5006779;28;20034;-70
2022/08/19 10:16:56;;;;;;;14.70;11.05;;;25.50;99.90;;;;;;5030693;28;20145;-71
2022/08/19 10:19:22;;;;;;;16.67;11.27;;;24.90;99.90;;;;;;5017023;28;20579;-71
2022/08/19 10:21:47;;;;;;;16.27;11.70;;;25.00;99.90;;;;;;5012108;28;20041;-71
2022/08/19 10:24:13;;;;;;;15.93;12.02;;;25.00;99.90;;;;;;5012127;28;20038;-71
2022/08/19 10:26:46;;;;;;;16.35;11.07;;;24.90;99.90;;;;;;4995693;28;20057;-72
2022/08/19 10:29:19;;;;;;;15.77;10.68;;;;;;;;;;5024666;28;20507;-71
2022/08/19 10:31:47;;;;;;;17.25;11.60;;;25.20;99.90;;;;;;5032353;28;20451;-71
2022/08/19 10:34:12;;;;;;;17.23;12.93;;;25.30;99.90;;;;;;5020724;28;20034;-72
2022/08/19 10:36:38;;;;;;;17.25;13.35;;;25.00;99.90;;;;;;5011919;28;20045;-71
2022/08/19 10:39:07;;;;;;;14.80;11.68;;;24.80;99.90;;;;;;5015878;28;20076;-70
2022/08/19 10:41:37;;;;;;;17.83;13.23;;;25.50;99.90;;;;;;5012737;28;20052;-71
2022/08/19 10:44:06;;;;;;;16.48;11.77;;;26.20;99.90;;;;;;5028280;28;20045;-71
2022/08/19 10:46:33;;;;;;;15.85;12.63;;;24.90;99.90;;;;;;5023346;28;20087;-70
2022/08/19 10:49:03;;;;;;;16.27;10.60;;;25.00;99.90;;;;;;5029071;28;20049;-71
2022/08/19 10:54:14;;;;;;;14.57;10.88;;;26.20;99.90;;;;;;5018831;28;20053;-70
2022/08/19 10:56:52;;;;;;;14.05;11.55;;;25.50;99.90;;;;;;5027074;28;20491;-70
2022/08/19 10:59:27;;;;;;;17.08;11.32;;;26.40;99.90;;;;;;5017818;28;20053;-72
2022/08/19 11:01:58;;;;;;;14.38;11.75;;;26.10;99.90;;;;;;5019851;28;20026;-70
2022/08/19 11:04:23;;;;;;;17.00;12.05;;;25.70;99.90;;;;;;5022600;28;20034;-72
2022/08/19 11:06:49;;;;;;;12.82;9.77;;;26.60;99.90;;;;;;5029479;28;20125;-72
2022/08/19 11:09:24;;;;;;;14.73;10.63;;;26.10;99.90;;;;;;5030359;28;20045;-72
2022/08/19 11:11:50;;;;;;;14.65;10.05;;;25.50;99.90;;;;;;5032084;28;20080;-71
2022/08/19 11:14:20;;;;;;;15.52;10.35;;;25.20;99.90;;;;;;5022968;28;20038;-71
2022/08/19 11:16:47;;;;;;;16.95;10.55;;;25.30;99.90;;;;;;5013141;28;20104;-71
2022/08/19 11:19:16;;;;;;;18.17;12.35;;;25.20;99.90;;;;;;5031336;28;20103;-71
2022/08/19 11:21:44;;;;;;;19.30;11.73;;;25.10;99.90;;;;;;5021125;28;20053;-69
2022/08/19 11:24:14;;;;;;;21.35;13.80;;;24.80;99.90;;;;;;5014318;28;20075;-71
2022/08/19 11:26:42;;;;;;;21.63;12.75;;;24.60;99.90;;;;;;5032256;28;20090;-72
2022/08/19 11:29:13;;;;;;;23.73;13.20;;;24.70;99.90;;;;;;5031746;28;20041;-71
2022/08/19 11:31:41;;;;;;;19.98;12.13;;;24.70;99.90;;;;;;5032129;28;20461;-68
2022/08/19 11:34:10;;;;;;;15.85;11.13;;;25.60;99.90;;;;;;5027491;28;20492;-71
2022/08/19 11:36:39;;;;;;;18.40;12.70;;;24.50;99.90;;;;;;5024258;28;20041;-72
2022/08/19 11:39:07;;;;;;;18.85;12.93;;;24.60;99.90;;;;;;5030969;28;20029;-72
2022/08/19 11:41:32;;;;;;;17.10;11.48;;;24.40;99.90;;;;;;5014885;28;20045;-72
2022/08/19 11:43:58;;;;;;;20.35;13.35;;;24.20;99.90;;;;;;5014842;28;20034;-71
2022/08/19 11:46:25;;;;;;;24.05;12.73;;;24.30;99.90;;;;;;5029705;28;20402;-71
2022/08/19 11:48:51;;;;;;;21.75;16.02;;;25.30;99.90;;;;;;5024488;28;20130;-71
2022/08/19 11:51:21;;;;;;;20.90;15.55;;;24.40;99.90;;;;;;5030443;28;20076;-71
2022/08/19 11:53:47;;;;;;;23.73;14.50;;;24.50;99.90;;;;;;5016190;28;20041;-71
2022/08/19 11:56:13;;;;;;;20.55;13.50;;;25.00;99.90;;;;;;5010357;28;20038;-72
2022/08/19 11:58:41;;;;;;;20.23;14.13;;;25.00;99.90;;;;;;4994009;28;20041;-71
2022/08/19 12:01:15;;;;;;;19.15;14.73;;;25.10;99.90;;;;;;5031740;28;20079;-72
2022/08/19 12:03:43;;;;;;;20.13;13.93;;;25.50;99.90;;;;;;5030356;28;20037;-72
2022/08/19 12:06:12;;;;;;;23.73;13.82;;;25.80;99.90;;;;;;5029482;28;20483;-72
2022/08/19 12:08:38;;;;;;;22.08;15.50;;;26.10;99.90;;;;;;5030540;28;20033;-71
2022/08/19 12:11:07;;;;;;;23.08;15.60;;;26.40;99.90;;;;;;5029497;28;20044;-70
2022/08/19 12:13:33;;;;;;;23.85;17.33;;;26.30;99.90;;;;;;5010570;28;20052;-72
2022/08/19 12:15:59;;;;;;;26.05;18.02;;;26.50;99.90;;;;;;5011287;28;20052;-72
2022/08/19 12:18:25;;;;;;;26.58;18.48;;;26.20;99.90;;;;;;4993758;28;20037;-72
2022/08/19 12:20:52;;;;;;;24.40;18.63;;;25.50;99.90;;;;;;5026147;28;20033;-71
2022/08/19 12:23:18;;;;;;;29.88;17.98;;;25.40;99.90;;;;;;5030122;28;20099;-72
2022/08/19 12:25:52;;;;;;;18.23;13.63;;;25.30;99.90;;;;;;5021066;28;20431;-72
2022/08/19 12:28:22;;;;;;;18.85;14.13;;;25.10;99.90;;;;;;5011681;28;20038;-72
2022/08/19 12:30:50;;;;;;;22.10;15.15;;;24.80;99.90;;;;;;5011434;28;20088;-72
2022/08/19 12:33:23;;;;;;;21.77;14.18;;;24.90;99.90;;;;;;5011107;28;20088;-72
2022/08/19 12:35:49;;;;;;;19.05;14.75;;;24.60;99.90;;;;;;5014269;28;20046;-71
2022/08/19 12:38:14;;;;;;;21.02;15.27;;;25.50;99.90;;;;;;5025010;28;20044;-71
2022/08/19 12:40:40;;;;;;;18.55;12.63;;;25.10;99.90;;;;;;5010254;28;20042;-71
2022/08/19 12:43:07;;;;;;;17.02;12.85;;;25.20;99.90;;;;;;5010038;28;20381;-71
2022/08/19 12:45:34;;;;;;;20.13;12.23;;;24.90;99.90;;;;;;4992957;28;20038;-72
2022/08/19 12:47:59;;;;;;;21.08;13.57;;;24.90;99.90;;;;;;5009094;28;20044;-72
2022/08/19 12:50:25;;;;;;;22.05;15.18;;;25.00;99.90;;;;;;5018155;28;20030;-71
2022/08/19 12:52:51;;;;;;;24.42;14.65;;;24.80;99.90;;;;;;4993451;28;20415;-71
2022/08/19 12:55:18;;;;;;;25.58;16.90;;;24.90;99.90;;;;;;4993465;28;20042;-71